sensor_id;sensor_type;location;lat;lon;timestamp;temperature;humidity
56298;DHT22;42208;6.376;-10.782;2022-10-31T00:01:36;25.90;99.90
56298;DHT22;42208;6.376;-10.782;2022-10-31T00:04:05;25.90;99.90
56298;DHT22;42208;6.376;-10.782;2022-10-31T00:06:33;25.90;99.90
56298;DHT22;42208;6.376;-10.782;2022-10-31T00:09:03;25.80;99.90
56298;DHT22;42208;6.376;-10.782;2022-10-31T00:11:32;25.80;99.90
56298;DHT22;42208;6.376;-10.782;2022-10-31T00:14:01;25.70;99.90
56298;DHT22;42208;6.376;-10.782;2022-10-31T00:16:29;25.80;99.90
56298;DHT22;42208;6.376;-10.782;2022-10-31T00:19:00;25.80;99.90
56298;DHT22;42208;6.376;-10.782;2022-10-31T00:21:30;25.80;99.90
56298;DHT22;42208;6.376;-10.782;2022-10-31T00:23:59;25.70;99.90
56298;DHT22;42208;6.376;-10.782;2022-10-31T00:26:29;25.80;99.90
56298;DHT22;42208;6.376;-10.782;2022-10-31T00:28:58;25.80;99.90
56298;DHT22;42208;6.376;-10.782;2022-10-31T00:31:27;25.70;99.90
56298;DHT22;42208;6.376;-10.782;2022-10-31T00:33:57;25.70;99.90
56298;DHT22;42208;6.376;-10.782;2022-10-31T00:36:26;25.70;99.90
56298;DHT22;42208;6.376;-10.782;2022-10-31T00:38:54;25.70;99.90
56298;DHT22;42208;6.376;-10.782;2022-10-31T00:41:23;25.70;99.90
56298;DHT22;42208;6.376;-10.782;2022-10-31T00:43:51;25.70;99.90
56298;DHT22;42208;6.376;-10.782;2022-10-31T00:46:20;25.70;99.90
56298;DHT22;42208;6.376;-10.782;2022-10-31T00:48:50;25.80;99.90
56298;DHT22;42208;6.376;-10.782;2022-10-31T00:51:18;25.70;99.90
56298;DHT22;42208;6.376;-10.782;2022-10-31T00:53:46;25.70;99.90
56298;DHT22;42208;6.376;-10.782;2022-10-31T00:56:14;25.70;99.90
56298;DHT22;42208;6.376;-10.782;2022-10-31T00:58:43;25.70;99.90
56298;DHT22;42208;6.376;-10.782;2022-10-31T01:01:11;25.70;99.90
56298;DHT22;42208;6.376;-10.782;2022-10-31T01:03:39;25.70;99.90
56298;DHT22;42208;6.376;-10.782;2022-10-31T01:06:13;25.70;99.90
56298;DHT22;42208;6.376;-10.782;2022-10-31T01:08:41;25.80;99.90
56298;DHT22;42208;6.376;-10.782;2022-10-31T01:11:20;25.80;99.90
56298;DHT22;42208;6.376;-10.782;2022-10-31T01:13:53;25.80;99.90
56298;DHT22;42208;6.376;-10.782;2022-10-31T01:16:24;25.80;99.90
56298;DHT22;42208;6.376;-10.782;2022-10-31T01:18:53;25.80;99.90
56298;DHT22;42208;6.376;-10.782;2022-10-31T01:21:26;25.70;99.90
56298;DHT22;42208;6.376;-10.782;2022-10-31T01:23:58;25.70;99.90
56298;DHT22;42208;6.376;-10.782;2022-10-31T01:26:29;25.70;99.90
56298;DHT22;42208;6.376;-10.782;2022-10-31T01:29:03;25.70;99.90
56298;DHT22;42208;6.376;-10.782;2022-10-31T01:31:34;25.80;99.90
56298;DHT22;42208;6.376;-10.782;2022-10-31T01:34:02;25.70;99.90
56298;DHT22;42208;6.376;-10.782;2022-10-31T01:36:36;25.70;99.90
56298;DHT22;42208;6.376;-10.782;2022-10-31T01:39:09;25.80;99.90
56298;DHT22;42208;6.376;-10.782;2022-10-31T01:41:42;25.80;99.90
56298;DHT22;42208;6.376;-10.782;2022-10-31T01:46:55;25.70;99.90
56298;DHT22;42208;6.376;-10.782;2022-10-31T01:49:43;25.80;99.90
56298;DHT22;42208;6.376;-10.782;2022-10-31T01:52:33;25.80;99.90
56298;DHT22;42208;6.376;-10.782;2022-10-31T01:55:06;25.80;99.90
56298;DHT22;42208;6.376;-10.782;2022-10-31T01:57:37;25.80;99.90
56298;DHT22;42208;6.376;-10.782;2022-10-31T02:00:10;25.80;99.90
56298;DHT22;42208;6.376;-10.782;2022-10-31T02:02:42;25.80;99.90
56298;DHT22;42208;6.376;-10.782;2022-10-31T02:05:14;25.80;99.90
56298;DHT22;42208;6.376;-10.782;2022-10-31T02:10:31;25.70;99.90
56298;DHT22;42208;6.376;-10.782;2022-10-31T02:13:03;25.80;99.90
56298;DHT22;42208;6.376;-10.782;2022-10-31T02:15:37;25.70;99.90
56298;DHT22;42208;6.376;-10.782;2022-10-31T02:18:06;25.80;99.90
56298;DHT22;42208;6.376;-10.782;2022-10-31T02:26:25;25.70;99.90
56298;DHT22;42208;6.376;-10.782;2022-10-31T02:48:39;25.60;99.90
56298;DHT22;42208;6.376;-10.782;2022-10-31T02:51:08;25.60;99.90
56298;DHT22;42208;6.376;-10.782;2022-10-31T02:53:38;25.60;99.90
56298;DHT22;42208;6.376;-10.782;2022-10-31T02:56:17;25.60;99.90
56298;DHT22;42208;6.376;-10.782;2022-10-31T02:58:56;25.60;99.90
56298;DHT22;42208;6.376;-10.782;2022-10-31T03:07:03;25.60;99.90
56298;DHT22;42208;6.376;-10.782;2022-10-31T03:10:13;25.60;99.90
56298;DHT22;42208;6.376;-10.782;2022-10-31T03:15:50;25.60;99.90
56298;DHT22;42208;6.376;-10.782;2022-10-31T03:18:27;25.60;99.90
56298;DHT22;42208;6.376;-10.782;2022-10-31T03:23:35;25.50;99.90
56298;DHT22;42208;6.376;-10.782;2022-10-31T03:26:06;25.50;99.90
56298;DHT22;42208;6.376;-10.782;2022-10-31T03:28:43;25.50;99.90
56298;DHT22;42208;6.376;-10.782;2022-10-31T03:31:16;25.50;99.90
56298;DHT22;42208;6.376;-10.782;2022-10-31T03:33:46;25.50;99.90
56298;DHT22;42208;6.376;-10.782;2022-10-31T03:36:17;25.50;99.90
56298;DHT22;42208;6.376;-10.782;2022-10-31T03:38:46;25.50;99.90
56298;DHT22;42208;6.376;-10.782;2022-10-31T03:41:23;25.50;99.90
56298;DHT22;42208;6.376;-10.782;2022-10-31T03:44:13;25.50;99.90
56298;DHT22;42208;6.376;-10.782;2022-10-31T03:46:43;25.50;99.90
56298;DHT22;42208;6.376;-10.782;2022-10-31T03:49:12;25.50;99.90
56298;DHT22;42208;6.376;-10.782;2022-10-31T03:57:06;25.50;99.90
56298;DHT22;42208;6.376;-10.782;2022-10-31T03:59:41;25.60;99.90
56298;DHT22;42208;6.376;-10.782;2022-10-31T04:02:15;25.50;99.90
56298;DHT22;42208;6.376;-10.782;2022-10-31T04:04:45;25.50;99.90
56298;DHT22;42208;6.376;-10.782;2022-10-31T04:07:15;25.60;99.90
56298;DHT22;42208;6.376;-10.782;2022-10-31T04:09:45;25.50;99.90
56298;DHT22;42208;6.376;-10.782;2022-10-31T04:12:15;25.50;99.90
56298;DHT22;42208;6.376;-10.782;2022-10-31T04:15:03;25.50;99.90
56298;DHT22;42208;6.376;-10.782;2022-10-31T04:17:38;25.60;99.90
56298;DHT22;42208;6.376;-10.782;2022-10-31T04:20:08;25.50;99.90
56298;DHT22;42208;6.376;-10.782;2022-10-31T04:22:37;25.50;99.90
56298;DHT22;42208;6.376;-10.782;2022-10-31T04:25:05;25.50;99.90
56298;DHT22;42208;6.376;-10.782;2022-10-31T04:27:33;25.40;99.90
56298;DHT22;42208;6.376;-10.782;2022-10-31T04:30:02;25.50;99.90
56298;DHT22;42208;6.376;-10.782;2022-10-31T04:32:33;25.40;99.90
56298;DHT22;42208;6.376;-10.782;2022-10-31T04:35:01;25.40;99.90
56298;DHT22;42208;6.376;-10.782;2022-10-31T04:37:29;25.40;99.90
56298;DHT22;42208;6.376;-10.782;2022-10-31T04:39:59;25.40;99.90
56298;DHT22;42208;6.376;-10.782;2022-10-31T04:42:47;25.40;99.90
56298;DHT22;42208;6.376;-10.782;2022-10-31T04:45:15;25.40;99.90
56298;DHT22;42208;6.376;-10.782;2022-10-31T04:47:51;25.40;99.90
56298;DHT22;42208;6.376;-10.782;2022-10-31T04:50:19;25.40;99.90
56298;DHT22;42208;6.376;-10.782;2022-10-31T04:52:47;25.40;99.90
56298;DHT22;42208;6.376;-10.782;2022-10-31T04:55:20;25.40;99.90
56298;DHT22;42208;6.376;-10.782;2022-10-31T04:58:12;25.30;99.90
56298;DHT22;42208;6.376;-10.782;2022-10-31T05:00:40;25.30;99.90
56298;DHT22;42208;6.376;-10.782;2022-10-31T05:03:09;25.40;99.90
56298;DHT22;42208;6.376;-10.782;2022-10-31T05:05:37;25.30;99.90
56298;DHT22;42208;6.376;-10.782;2022-10-31T05:08:05;25.30;99.90
56298;DHT22;42208;6.376;-10.782;2022-10-31T05:10:33;25.30;99.90
56298;DHT22;42208;6.376;-10.782;2022-10-31T05:13:03;25.30;99.90
56298;DHT22;42208;6.376;-10.782;2022-10-31T05:16:07;25.30;99.90
56298;DHT22;42208;6.376;-10.782;2022-10-31T05:18:48;25.30;99.90
56298;DHT22;42208;6.376;-10.782;2022-10-31T05:21:51;25.30;99.90
56298;DHT22;42208;6.376;-10.782;2022-10-31T05:24:19;25.30;99.90
56298;DHT22;42208;6.376;-10.782;2022-10-31T05:26:49;25.30;99.90
56298;DHT22;42208;6.376;-10.782;2022-10-31T05:29:17;25.30;99.90
56298;DHT22;42208;6.376;-10.782;2022-10-31T05:31:45;25.30;99.90
56298;DHT22;42208;6.376;-10.782;2022-10-31T05:34:33;25.30;99.90
56298;DHT22;42208;6.376;-10.782;2022-10-31T05:37:15;25.30;99.90
56298;DHT22;42208;6.376;-10.782;2022-10-31T05:39:43;25.30;99.90
56298;DHT22;42208;6.376;-10.782;2022-10-31T05:42:15;25.30;99.90
56298;DHT22;42208;6.376;-10.782;2022-10-31T05:44:43;25.30;99.90
56298;DHT22;42208;6.376;-10.782;2022-10-31T05:47:34;25.30;99.90
56298;DHT22;42208;6.376;-10.782;2022-10-31T05:50:24;25.30;99.90
56298;DHT22;42208;6.376;-10.782;2022-10-31T05:53:05;25.30;99.90
56298;DHT22;42208;6.376;-10.782;2022-10-31T05:55:36;25.30;99.90
56298;DHT22;42208;6.376;-10.782;2022-10-31T05:58:11;25.30;99.90
56298;DHT22;42208;6.376;-10.782;2022-10-31T06:00:45;25.20;99.90
56298;DHT22;42208;6.376;-10.782;2022-10-31T06:03:15;25.30;99.90
56298;DHT22;42208;6.376;-10.782;2022-10-31T06:09:29;25.20;99.90
56298;DHT22;42208;6.376;-10.782;2022-10-31T06:11:57;25.20;99.90
56298;DHT22;42208;6.376;-10.782;2022-10-31T06:14:26;25.20;99.90
56298;DHT22;42208;6.376;-10.782;2022-10-31T06:16:56;25.20;99.90
56298;DHT22;42208;6.376;-10.782;2022-10-31T06:19:43;25.20;99.90
56298;DHT22;42208;6.376;-10.782;2022-10-31T06:22:15;25.20;99.90
56298;DHT22;42208;6.376;-10.782;2022-10-31T06:24:44;25.20;99.90
56298;DHT22;42208;6.376;-10.782;2022-10-31T06:27:27;25.20;99.90
56298;DHT22;42208;6.376;-10.782;2022-10-31T06:29:57;25.30;99.90
56298;DHT22;42208;6.376;-10.782;2022-10-31T06:32:31;25.20;99.90
56298;DHT22;42208;6.376;-10.782;2022-10-31T06:34:59;25.30;99.90
56298;DHT22;42208;6.376;-10.782;2022-10-31T06:37:28;25.30;99.90
56298;DHT22;42208;6.376;-10.782;2022-10-31T06:40:03;25.30;99.90
56298;DHT22;42208;6.376;-10.782;2022-10-31T06:42:44;25.30;99.90
56298;DHT22;42208;6.376;-10.782;2022-10-31T06:45:13;25.30;99.90
56298;DHT22;42208;6.376;-10.782;2022-10-31T06:48:15;25.30;99.90
56298;DHT22;42208;6.376;-10.782;2022-10-31T06:51:03;25.30;99.90
56298;DHT22;42208;6.376;-10.782;2022-10-31T06:53:32;25.30;99.90
56298;DHT22;42208;6.376;-10.782;2022-10-31T06:56:01;25.30;99.90
56298;DHT22;42208;6.376;-10.782;2022-10-31T06:58:33;25.30;99.90
56298;DHT22;42208;6.376;-10.782;2022-10-31T07:01:04;25.30;99.90
56298;DHT22;42208;6.376;-10.782;2022-10-31T07:03:33;25.30;99.90
56298;DHT22;42208;6.376;-10.782;2022-10-31T07:06:01;25.30;99.90
56298;DHT22;42208;6.376;-10.782;2022-10-31T07:08:31;25.30;99.90
56298;DHT22;42208;6.376;-10.782;2022-10-31T07:10:59;25.30;99.90
56298;DHT22;42208;6.376;-10.782;2022-10-31T07:13:29;25.30;99.90
56298;DHT22;42208;6.376;-10.782;2022-10-31T07:16:05;25.30;99.90
56298;DHT22;42208;6.376;-10.782;2022-10-31T07:18:35;25.40;99.90
56298;DHT22;42208;6.376;-10.782;2022-10-31T07:21:04;25.40;99.90
56298;DHT22;42208;6.376;-10.782;2022-10-31T07:23:32;25.50;99.90
56298;DHT22;42208;6.376;-10.782;2022-10-31T07:26:26;25.50;99.90
56298;DHT22;42208;6.376;-10.782;2022-10-31T07:28:54;25.60;99.90
56298;DHT22;42208;6.376;-10.782;2022-10-31T07:31:25;25.60;99.90
56298;DHT22;42208;6.376;-10.782;2022-10-31T07:33:57;25.70;99.90
56298;DHT22;42208;6.376;-10.782;2022-10-31T07:36:28;25.80;99.90
56298;DHT22;42208;6.376;-10.782;2022-10-31T07:39:01;25.80;99.90
56298;DHT22;42208;6.376;-10.782;2022-10-31T07:41:32;25.90;99.90
56298;DHT22;42208;6.376;-10.782;2022-10-31T07:44:01;26.00;99.90
56298;DHT22;42208;6.376;-10.782;2022-10-31T07:46:53;26.10;99.90
56298;DHT22;42208;6.376;-10.782;2022-10-31T07:49:39;26.20;99.90
56298;DHT22;42208;6.376;-10.782;2022-10-31T07:52:26;26.20;99.90
56298;DHT22;42208;6.376;-10.782;2022-10-31T07:57:09;26.40;99.90
56298;DHT22;42208;6.376;-10.782;2022-10-31T07:59:38;26.50;99.90
56298;DHT22;42208;6.376;-10.782;2022-10-31T08:02:08;26.50;99.90
56298;DHT22;42208;6.376;-10.782;2022-10-31T08:04:58;26.60;99.90
56298;DHT22;42208;6.376;-10.782;2022-10-31T08:08:00;26.70;99.90
56298;DHT22;42208;6.376;-10.782;2022-10-31T08:10:29;26.80;99.90
56298;DHT22;42208;6.376;-10.782;2022-10-31T08:13:00;26.90;99.90
56298;DHT22;42208;6.376;-10.782;2022-10-31T08:15:30;27.00;99.90
56298;DHT22;42208;6.376;-10.782;2022-10-31T08:17:59;27.00;99.90
56298;DHT22;42208;6.376;-10.782;2022-10-31T08:20:27;27.10;99.90
56298;DHT22;42208;6.376;-10.782;2022-10-31T08:22:58;27.10;99.90
56298;DHT22;42208;6.376;-10.782;2022-10-31T08:25:29;27.10;99.90
56298;DHT22;42208;6.376;-10.782;2022-10-31T08:28:05;27.10;99.90
56298;DHT22;42208;6.376;-10.782;2022-10-31T08:30:36;27.10;99.90
56298;DHT22;42208;6.376;-10.782;2022-10-31T08:33:34;27.20;99.90
56298;DHT22;42208;6.376;-10.782;2022-10-31T08:36:21;27.20;99.90
56298;DHT22;42208;6.376;-10.782;2022-10-31T08:38:58;27.30;99.90
56298;DHT22;42208;6.376;-10.782;2022-10-31T08:41:30;27.40;99.90
56298;DHT22;42208;6.376;-10.782;2022-10-31T08:44:00;27.50;99.90
56298;DHT22;42208;6.376;-10.782;2022-10-31T08:46:28;27.50;99.90
56298;DHT22;42208;6.376;-10.782;2022-10-31T08:48:56;27.60;99.90
56298;DHT22;42208;6.376;-10.782;2022-10-31T08:51:25;27.60;99.90
56298;DHT22;42208;6.376;-10.782;2022-10-31T08:53:55;27.60;99.90
56298;DHT22;42208;6.376;-10.782;2022-10-31T08:56:46;27.70;99.90
56298;DHT22;42208;6.376;-10.782;2022-10-31T08:59:46;27.70;99.90
56298;DHT22;42208;6.376;-10.782;2022-10-31T09:02:37;27.80;99.90
56298;DHT22;42208;6.376;-10.782;2022-10-31T09:05:06;27.80;99.90
56298;DHT22;42208;6.376;-10.782;2022-10-31T09:07:34;27.90;99.90
56298;DHT22;42208;6.376;-10.782;2022-10-31T09:10:03;28.00;99.90
56298;DHT22;42208;6.376;-10.782;2022-10-31T09:12:35;28.00;99.90
56298;DHT22;42208;6.376;-10.782;2022-10-31T09:15:23;28.10;99.90
56298;DHT22;42208;6.376;-10.782;2022-10-31T09:18:13;28.10;99.90
56298;DHT22;42208;6.376;-10.782;2022-10-31T09:20:49;28.10;99.90
56298;DHT22;42208;6.376;-10.782;2022-10-31T09:23:20;28.20;99.90
56298;DHT22;42208;6.376;-10.782;2022-10-31T09:25:50;28.10;99.90
56298;DHT22;42208;6.376;-10.782;2022-10-31T09:28:30;28.20;99.90
56298;DHT22;42208;6.376;-10.782;2022-10-31T09:31:05;28.20;99.90
56298;DHT22;42208;6.376;-10.782;2022-10-31T09:34:02;28.20;99.90
56298;DHT22;42208;6.376;-10.782;2022-10-31T09:36:38;28.20;99.90
56298;DHT22;42208;6.376;-10.782;2022-10-31T09:39:11;28.20;99.90
56298;DHT22;42208;6.376;-10.782;2022-10-31T09:56:31;29.00;99.90
56298;DHT22;42208;6.376;-10.782;2022-10-31T09:59:02;29.10;99.90
56298;DHT22;42208;6.376;-10.782;2022-10-31T10:01:45;29.20;99.90
56298;DHT22;42208;6.376;-10.782;2022-10-31T10:04:43;29.30;99.90
56298;DHT22;42208;6.376;-10.782;2022-10-31T10:10:27;29.30;99.90
56298;DHT22;42208;6.376;-10.782;2022-10-31T10:13:29;29.30;99.90
56298;DHT22;42208;6.376;-10.782;2022-10-31T10:16:04;29.30;99.90
56298;DHT22;42208;6.376;-10.782;2022-10-31T10:26:47;28.90;99.90
56298;DHT22;42208;6.376;-10.782;2022-10-31T10:29:37;28.90;99.90
56298;DHT22;42208;6.376;-10.782;2022-10-31T10:32:43;29.00;99.90
56298;DHT22;42208;6.376;-10.782;2022-10-31T10:37:52;29.10;99.90
56298;DHT22;42208;6.376;-10.782;2022-10-31T10:40:27;29.10;99.90
56298;DHT22;42208;6.376;-10.782;2022-10-31T10:43:36;29.10;99.90
56298;DHT22;42208;6.376;-10.782;2022-10-31T10:48:44;29.40;99.90
56298;DHT22;42208;6.376;-10.782;2022-10-31T10:54:45;29.80;99.90
56298;DHT22;42208;6.376;-10.782;2022-10-31T10:59:54;29.70;99.90
56298;DHT22;42208;6.376;-10.782;2022-10-31T11:02:25;29.80;99.90
56298;DHT22;42208;6.376;-10.782;2022-10-31T11:04:56;29.80;99.90
56298;DHT22;42208;6.376;-10.782;2022-10-31T11:07:25;29.80;99.90
56298;DHT22;42208;6.376;-10.782;2022-10-31T11:10:06;29.70;99.90
56298;DHT22;42208;6.376;-10.782;2022-10-31T11:12:39;29.70;99.90
56298;DHT22;42208;6.376;-10.782;2022-10-31T11:15:18;29.90;99.90
56298;DHT22;42208;6.376;-10.782;2022-10-31T11:17:50;30.00;99.90
56298;DHT22;42208;6.376;-10.782;2022-10-31T11:22:48;30.10;99.90
56298;DHT22;42208;6.376;-10.782;2022-10-31T11:27:59;30.00;99.90
56298;DHT22;42208;6.376;-10.782;2022-10-31T11:30:28;29.80;99.90
56298;DHT22;42208;6.376;-10.782;2022-10-31T11:32:58;29.70;99.90
56298;DHT22;42208;6.376;-10.782;2022-10-31T11:35:29;29.60;99.90
56298;DHT22;42208;6.376;-10.782;2022-10-31T11:37:58;29.50;99.90
56298;DHT22;42208;6.376;-10.782;2022-10-31T11:40:28;29.50;99.90
56298;DHT22;42208;6.376;-10.782;2022-10-31T11:42:58;29.50;99.90
56298;DHT22;42208;6.376;-10.782;2022-10-31T11:45:32;29.50;99.90
56298;DHT22;42208;6.376;-10.782;2022-10-31T11:48:01;29.60;99.90
56298;DHT22;42208;6.376;-10.782;2022-10-31T11:50:41;29.80;99.90
56298;DHT22;42208;6.376;-10.782;2022-10-31T11:53:24;30.00;99.90
56298;DHT22;42208;6.376;-10.782;2022-10-31T11:56:13;29.90;99.90
56298;DHT22;42208;6.376;-10.782;2022-10-31T11:58:42;29.90;99.90
56298;DHT22;42208;6.376;-10.782;2022-10-31T12:01:39;30.00;99.90
56298;DHT22;42208;6.376;-10.782;2022-10-31T12:04:12;29.80;99.90
56298;DHT22;42208;6.376;-10.782;2022-10-31T12:06:42;29.70;99.90
56298;DHT22;42208;6.376;-10.782;2022-10-31T12:12:10;29.50;99.90
56298;DHT22;42208;6.376;-10.782;2022-10-31T12:18:47;29.20;99.90
56298;DHT22;42208;6.376;-10.782;2022-10-31T12:26:51;28.40;99.90
56298;DHT22;42208;6.376;-10.782;2022-10-31T12:29:39;28.40;99.90
56298;DHT22;42208;6.376;-10.782;2022-10-31T12:32:38;28.60;99.90
56298;DHT22;42208;6.376;-10.782;2022-10-31T12:41:12;29.20;99.90
56298;DHT22;42208;6.376;-10.782;2022-10-31T12:44:05;29.20;99.90
56298;DHT22;42208;6.376;-10.782;2022-10-31T12:47:05;29.10;99.90
56298;DHT22;42208;6.376;-10.782;2022-10-31T12:58:00;29.10;99.90
56298;DHT22;42208;6.376;-10.782;2022-10-31T13:00:32;29.20;99.90
56298;DHT22;42208;6.376;-10.782;2022-10-31T13:03:36;29.30;99.90
56298;DHT22;42208;6.376;-10.782;2022-10-31T13:06:12;29.40;99.90
56298;DHT22;42208;6.376;-10.782;2022-10-31T13:08:55;29.60;99.90
56298;DHT22;42208;6.376;-10.782;2022-10-31T13:11:33;29.70;99.90
56298;DHT22;42208;6.376;-10.782;2022-10-31T13:14:21;29.80;99.90
56298;DHT22;42208;6.376;-10.782;2022-10-31T13:16:52;29.90;99.90
56298;DHT22;42208;6.376;-10.782;2022-10-31T13:21:58;30.40;99.90
56298;DHT22;42208;6.376;-10.782;2022-10-31T13:24:56;30.50;99.90
56298;DHT22;42208;6.376;-10.782;2022-10-31T13:27:30;30.30;99.90
56298;DHT22;42208;6.376;-10.782;2022-10-31T13:30:26;30.20;99.90
56298;DHT22;42208;6.376;-10.782;2022-10-31T13:36:25;30.10;99.90
56298;DHT22;42208;6.376;-10.782;2022-10-31T13:41:43;30.00;99.90
56298;DHT22;42208;6.376;-10.782;2022-10-31T13:44:23;30.00;99.90
56298;DHT22;42208;6.376;-10.782;2022-10-31T13:46:54;30.00;99.90
56298;DHT22;42208;6.376;-10.782;2022-10-31T13:52:13;30.20;99.90
56298;DHT22;42208;6.376;-10.782;2022-10-31T13:54:46;30.20;99.90
56298;DHT22;42208;6.376;-10.782;2022-10-31T14:00:23;30.30;99.90
56298;DHT22;42208;6.376;-10.782;2022-10-31T14:02:55;30.50;99.90
56298;DHT22;42208;6.376;-10.782;2022-10-31T14:05:29;30.60;99.90
56298;DHT22;42208;6.376;-10.782;2022-10-31T14:08:03;30.80;99.90
56298;DHT22;42208;6.376;-10.782;2022-10-31T14:10:47;30.90;99.90
56298;DHT22;42208;6.376;-10.782;2022-10-31T14:16:05;31.20;99.90
56298;DHT22;42208;6.376;-10.782;2022-10-31T14:18:40;31.00;99.90
56298;DHT22;42208;6.376;-10.782;2022-10-31T14:21:28;31.00;99.90
56298;DHT22;42208;6.376;-10.782;2022-10-31T14:23:57;31.10;99.90
56298;DHT22;42208;6.376;-10.782;2022-10-31T14:29:26;31.20;99.90
56298;DHT22;42208;6.376;-10.782;2022-10-31T14:32:04;31.30;99.90
56298;DHT22;42208;6.376;-10.782;2022-10-31T14:48:37;31.70;99.90
56298;DHT22;42208;6.376;-10.782;2022-10-31T14:51:19;32.00;99.90
56298;DHT22;42208;6.376;-10.782;2022-10-31T14:53:55;32.10;99.90
56298;DHT22;42208;6.376;-10.782;2022-10-31T14:56:29;32.00;99.90
56298;DHT22;42208;6.376;-10.782;2022-10-31T14:59:06;31.70;99.90
56298;DHT22;42208;6.376;-10.782;2022-10-31T15:01:37;31.70;99.90
56298;DHT22;42208;6.376;-10.782;2022-10-31T15:04:28;31.60;99.90
56298;DHT22;42208;6.376;-10.782;2022-10-31T15:09:41;31.70;99.90
56298;DHT22;42208;6.376;-10.782;2022-10-31T15:12:35;31.70;99.90
56298;DHT22;42208;6.376;-10.782;2022-10-31T15:15:25;31.60;99.90
56298;DHT22;42208;6.376;-10.782;2022-10-31T15:17:56;31.70;99.90
56298;DHT22;42208;6.376;-10.782;2022-10-31T15:20:26;31.90;99.90
56298;DHT22;42208;6.376;-10.782;2022-10-31T15:22:57;31.80;99.90
56298;DHT22;42208;6.376;-10.782;2022-10-31T15:25:30;31.60;99.90
56298;DHT22;42208;6.376;-10.782;2022-10-31T15:28:00;31.40;99.90
56298;DHT22;42208;6.376;-10.782;2022-10-31T15:30:29;31.10;99.90
56298;DHT22;42208;6.376;-10.782;2022-10-31T15:32:57;31.10;99.90
56298;DHT22;42208;6.376;-10.782;2022-10-31T15:35:30;30.90;99.90
56298;DHT22;42208;6.376;-10.782;2022-10-31T15:37:58;30.70;99.90
56298;DHT22;42208;6.376;-10.782;2022-10-31T15:40:27;30.50;99.90
56298;DHT22;42208;6.376;-10.782;2022-10-31T15:42:57;30.20;99.90
56298;DHT22;42208;6.376;-10.782;2022-10-31T15:45:27;30.20;99.90
56298;DHT22;42208;6.376;-10.782;2022-10-31T15:48:18;30.10;99.90
56298;DHT22;42208;6.376;-10.782;2022-10-31T15:50:53;30.00;99.90
56298;DHT22;42208;6.376;-10.782;2022-10-31T15:53:26;30.00;99.90
56298;DHT22;42208;6.376;-10.782;2022-10-31T15:56:02;29.90;99.90
56298;DHT22;42208;6.376;-10.782;2022-10-31T16:03:33;29.70;99.90
56298;DHT22;42208;6.376;-10.782;2022-10-31T16:06:03;29.60;99.90
56298;DHT22;42208;6.376;-10.782;2022-10-31T16:09:56;29.50;99.90
56298;DHT22;42208;6.376;-10.782;2022-10-31T16:12:36;29.40;99.90
56298;DHT22;42208;6.376;-10.782;2022-10-31T16:15:13;29.30;99.90
56298;DHT22;42208;6.376;-10.782;2022-10-31T16:17:50;29.30;99.90
56298;DHT22;42208;6.376;-10.782;2022-10-31T16:20:22;29.20;99.90
56298;DHT22;42208;6.376;-10.782;2022-10-31T16:22:51;29.10;99.90
56298;DHT22;42208;6.376;-10.782;2022-10-31T16:25:34;29.10;99.90
56298;DHT22;42208;6.376;-10.782;2022-10-31T16:28:13;29.10;99.90
56298;DHT22;42208;6.376;-10.782;2022-10-31T16:30:47;29.00;99.90
56298;DHT22;42208;6.376;-10.782;2022-10-31T16:35:59;28.90;99.90
56298;DHT22;42208;6.376;-10.782;2022-10-31T16:38:42;28.90;99.90
56298;DHT22;42208;6.376;-10.782;2022-10-31T16:41:10;28.80;99.90
56298;DHT22;42208;6.376;-10.782;2022-10-31T16:43:38;28.70;99.90
56298;DHT22;42208;6.376;-10.782;2022-10-31T16:46:14;28.60;99.90
56298;DHT22;42208;6.376;-10.782;2022-10-31T16:48:43;28.60;99.90
56298;DHT22;42208;6.376;-10.782;2022-10-31T16:51:11;28.60;99.90
56298;DHT22;42208;6.376;-10.782;2022-10-31T16:53:39;28.60;99.90
56298;DHT22;42208;6.376;-10.782;2022-10-31T16:56:21;28.60;99.90
56298;DHT22;42208;6.376;-10.782;2022-10-31T16:58:51;28.50;99.90
56298;DHT22;42208;6.376;-10.782;2022-10-31T17:01:19;28.40;99.90
56298;DHT22;42208;6.376;-10.782;2022-10-31T17:03:48;28.50;99.90
56298;DHT22;42208;6.376;-10.782;2022-10-31T17:06:16;28.50;99.90
56298;DHT22;42208;6.376;-10.782;2022-10-31T17:08:44;28.50;99.90
56298;DHT22;42208;6.376;-10.782;2022-10-31T17:11:19;28.50;99.90
56298;DHT22;42208;6.376;-10.782;2022-10-31T17:13:48;28.50;99.90
56298;DHT22;42208;6.376;-10.782;2022-10-31T17:16:16;28.50;99.90
56298;DHT22;42208;6.376;-10.782;2022-10-31T17:18:45;28.50;99.90
56298;DHT22;42208;6.376;-10.782;2022-10-31T17:21:20;28.50;99.90
56298;DHT22;42208;6.376;-10.782;2022-10-31T17:23:49;28.50;99.90
56298;DHT22;42208;6.376;-10.782;2022-10-31T17:26:18;28.50;99.90
56298;DHT22;42208;6.376;-10.782;2022-10-31T17:28:46;28.40;99.90
56298;DHT22;42208;6.376;-10.782;2022-10-31T17:31:27;28.50;99.90
56298;DHT22;42208;6.376;-10.782;2022-10-31T17:33:56;28.50;99.90
56298;DHT22;42208;6.376;-10.782;2022-10-31T17:36:31;28.40;99.90
56298;DHT22;42208;6.376;-10.782;2022-10-31T17:38:59;28.40;99.90
56298;DHT22;42208;6.376;-10.782;2022-10-31T17:41:27;28.40;99.90
56298;DHT22;42208;6.376;-10.782;2022-10-31T17:43:56;28.40;99.90
56298;DHT22;42208;6.376;-10.782;2022-10-31T17:46:25;28.40;99.90
56298;DHT22;42208;6.376;-10.782;2022-10-31T17:48:53;28.30;99.90
56298;DHT22;42208;6.376;-10.782;2022-10-31T17:51:22;28.20;99.90
56298;DHT22;42208;6.376;-10.782;2022-10-31T17:53:50;28.20;99.90
56298;DHT22;42208;6.376;-10.782;2022-10-31T17:56:18;28.20;99.90
56298;DHT22;42208;6.376;-10.782;2022-10-31T17:58:46;28.20;99.90
56298;DHT22;42208;6.376;-10.782;2022-10-31T18:01:16;28.10;99.90
56298;DHT22;42208;6.376;-10.782;2022-10-31T18:03:45;28.10;99.90
56298;DHT22;42208;6.376;-10.782;2022-10-31T18:06:13;28.10;99.90
56298;DHT22;42208;6.376;-10.782;2022-10-31T18:08:42;28.10;99.90
56298;DHT22;42208;6.376;-10.782;2022-10-31T18:11:14;28.00;99.90
56298;DHT22;42208;6.376;-10.782;2022-10-31T18:13:43;28.00;99.90
56298;DHT22;42208;6.376;-10.782;2022-10-31T18:16:13;27.90;99.90
56298;DHT22;42208;6.376;-10.782;2022-10-31T18:18:42;27.90;99.90
56298;DHT22;42208;6.376;-10.782;2022-10-31T18:21:10;27.90;99.90
56298;DHT22;42208;6.376;-10.782;2022-10-31T18:23:38;27.90;99.90
56298;DHT22;42208;6.376;-10.782;2022-10-31T18:26:09;27.80;99.90
56298;DHT22;42208;6.376;-10.782;2022-10-31T18:28:38;27.80;99.90
56298;DHT22;42208;6.376;-10.782;2022-10-31T18:31:06;27.80;99.90
56298;DHT22;42208;6.376;-10.782;2022-10-31T18:33:34;27.80;99.90
56298;DHT22;42208;6.376;-10.782;2022-10-31T18:36:06;27.70;99.90
56298;DHT22;42208;6.376;-10.782;2022-10-31T18:38:42;27.70;99.90
56298;DHT22;42208;6.376;-10.782;2022-10-31T18:41:11;27.70;99.90
56298;DHT22;42208;6.376;-10.782;2022-10-31T18:43:40;27.70;99.90
56298;DHT22;42208;6.376;-10.782;2022-10-31T18:46:12;27.70;99.90
56298;DHT22;42208;6.376;-10.782;2022-10-31T18:48:41;27.70;99.90